sensor_id;sensor_type;location;lat;lon;timestamp;temperature;humidity
30467;DHT22;17258;52.560;13.046;2024-02-28T00:04:32;10.30;60.30
30467;DHT22;17258;52.560;13.046;2024-02-28T00:14:32;10.30;60.30
30467;DHT22;17258;52.560;13.046;2024-02-28T00:24:33;10.30;60.40
30467;DHT22;17258;52.560;13.046;2024-02-28T00:34:34;10.30;60.40
30467;DHT22;17258;52.560;13.046;2024-02-28T00:44:34;10.30;60.40
30467;DHT22;17258;52.560;13.046;2024-02-28T00:54:35;10.40;60.50
30467;DHT22;17258;52.560;13.046;2024-02-28T01:04:36;10.40;60.40
30467;DHT22;17258;52.560;13.046;2024-02-28T01:14:36;10.40;60.40
30467;DHT22;17258;52.560;13.046;2024-02-28T01:24:37;10.30;60.40
30467;DHT22;17258;52.560;13.046;2024-02-28T01:34:38;10.30;60.50
30467;DHT22;17258;52.560;13.046;2024-02-28T01:44:44;10.30;60.60
30467;DHT22;17258;52.560;13.046;2024-02-28T01:54:46;10.30;60.70
30467;DHT22;17258;52.560;13.046;2024-02-28T02:04:47;10.30;60.60
30467;DHT22;17258;52.560;13.046;2024-02-28T02:14:50;10.30;60.50
30467;DHT22;17258;52.560;13.046;2024-02-28T02:24:51;10.30;60.70
30467;DHT22;17258;52.560;13.046;2024-02-28T02:34:52;10.30;60.50
30467;DHT22;17258;52.560;13.046;2024-02-28T02:44:52;10.20;60.50
30467;DHT22;17258;52.560;13.046;2024-02-28T02:54:53;10.20;60.50
30467;DHT22;17258;52.560;13.046;2024-02-28T03:04:54;10.20;60.70
30467;DHT22;17258;52.560;13.046;2024-02-28T03:14:54;10.20;60.80
30467;DHT22;17258;52.560;13.046;2024-02-28T03:24:55;10.20;60.80
30467;DHT22;17258;52.560;13.046;2024-02-28T03:34:56;10.20;60.70
30467;DHT22;17258;52.560;13.046;2024-02-28T03:44:56;10.20;60.80
30467;DHT22;17258;52.560;13.046;2024-02-28T03:54:57;10.20;60.70
30467;DHT22;17258;52.560;13.046;2024-02-28T04:04:58;10.10;60.70
30467;DHT22;17258;52.560;13.046;2024-02-28T04:14:59;10.10;60.80
30467;DHT22;17258;52.560;13.046;2024-02-28T04:24:59;10.10;60.80
30467;DHT22;17258;52.560;13.046;2024-02-28T04:35:00;10.00;60.80
30467;DHT22;17258;52.560;13.046;2024-02-28T04:45:01;10.00;60.80
30467;DHT22;17258;52.560;13.046;2024-02-28T04:55:01;10.00;60.90
30467;DHT22;17258;52.560;13.046;2024-02-28T05:05:02;10.00;60.90
30467;DHT22;17258;52.560;13.046;2024-02-28T05:15:03;9.90;60.80
30467;DHT22;17258;52.560;13.046;2024-02-28T05:25:06;9.80;60.80
30467;DHT22;17258;52.560;13.046;2024-02-28T05:35:07;9.80;60.90
30467;DHT22;17258;52.560;13.046;2024-02-28T05:45:08;9.70;61.00
30467;DHT22;17258;52.560;13.046;2024-02-28T05:55:09;9.60;60.90
30467;DHT22;17258;52.560;13.046;2024-02-28T06:05:09;9.50;61.00
30467;DHT22;17258;52.560;13.046;2024-02-28T06:15:10;9.30;61.00
30467;DHT22;17258;52.560;13.046;2024-02-28T06:25:11;9.20;61.20
30467;DHT22;17258;52.560;13.046;2024-02-28T06:35:19;9.10;61.30
30467;DHT22;17258;52.560;13.046;2024-02-28T06:45:19;8.70;62.30
30467;DHT22;17258;52.560;13.046;2024-02-28T06:55:20;8.80;61.50
30467;DHT22;17258;52.560;13.046;2024-02-28T07:05:21;8.70;61.50
30467;DHT22;17258;52.560;13.046;2024-02-28T07:15:22;8.70;61.70
30467;DHT22;17258;52.560;13.046;2024-02-28T07:25:23;8.70;61.90
30467;DHT22;17258;52.560;13.046;2024-02-28T07:35:23;8.70;62.10
30467;DHT22;17258;52.560;13.046;2024-02-28T07:45:24;8.70;62.00
30467;DHT22;17258;52.560;13.046;2024-02-28T07:55:25;8.80;62.00
30467;DHT22;17258;52.560;13.046;2024-02-28T08:05:25;8.80;62.70
30467;DHT22;17258;52.560;13.046;2024-02-28T08:15:26;8.80;62.00
30467;DHT22;17258;52.560;13.046;2024-02-28T08:25:27;8.90;61.90
30467;DHT22;17258;52.560;13.046;2024-02-28T08:35:27;8.90;62.00
30467;DHT22;17258;52.560;13.046;2024-02-28T08:45:29;9.00;62.10
30467;DHT22;17258;52.560;13.046;2024-02-28T08:55:30;9.10;62.00
30467;DHT22;17258;52.560;13.046;2024-02-28T09:05:31;9.10;61.90
30467;DHT22;17258;52.560;13.046;2024-02-28T09:15:32;9.10;61.80
30467;DHT22;17258;52.560;13.046;2024-02-28T09:25:34;9.20;61.90
30467;DHT22;17258;52.560;13.046;2024-02-28T09:35:36;9.20;61.80
30467;DHT22;17258;52.560;13.046;2024-02-28T09:45:36;9.20;61.80
30467;DHT22;17258;52.560;13.046;2024-02-28T09:55:37;9.20;61.70
30467;DHT22;17258;52.560;13.046;2024-02-28T10:05:38;9.20;61.50
30467;DHT22;17258;52.560;13.046;2024-02-28T10:15:40;9.30;61.40
30467;DHT22;17258;52.560;13.046;2024-02-28T10:35:44;9.30;61.40
30467;DHT22;17258;52.560;13.046;2024-02-28T10:45:45;9.40;61.30
30467;DHT22;17258;52.560;13.046;2024-02-28T10:55:49;9.50;61.20
30467;DHT22;17258;52.560;13.046;2024-02-28T11:05:50;9.50;61.20
30467;DHT22;17258;52.560;13.046;2024-02-28T11:15:53;9.60;61.20
30467;DHT22;17258;52.560;13.046;2024-02-28T11:25:55;9.60;61.00
30467;DHT22;17258;52.560;13.046;2024-02-28T11:35:59;9.70;61.00
30467;DHT22;17258;52.560;13.046;2024-02-28T11:46:00;9.70;61.10
30467;DHT22;17258;52.560;13.046;2024-02-28T11:56:01;9.80;61.20
30467;DHT22;17258;52.560;13.046;2024-02-28T12:06:02;9.90;61.60
30467;DHT22;17258;52.560;13.046;2024-02-28T12:16:03;9.90;60.60
30467;DHT22;17258;52.560;13.046;2024-02-28T12:26:04;10.00;60.80
30467;DHT22;17258;52.560;13.046;2024-02-28T12:36:05;10.10;60.60
30467;DHT22;17258;52.560;13.046;2024-02-28T12:46:08;10.10;60.60
30467;DHT22;17258;52.560;13.046;2024-02-28T12:56:09;10.20;60.60
30467;DHT22;17258;52.560;13.046;2024-02-28T13:06:09;10.30;60.90
30467;DHT22;17258;52.560;13.046;2024-02-28T13:16:10;10.60;61.00
30467;DHT22;17258;52.560;13.046;2024-02-28T13:26:11;10.80;60.50
30467;DHT22;17258;52.560;13.046;2024-02-28T13:36:18;10.90;59.80
30467;DHT22;17258;52.560;13.046;2024-02-28T13:46:19;11.00;60.00
30467;DHT22;17258;52.560;13.046;2024-02-28T13:56:20;11.10;60.00
30467;DHT22;17258;52.560;13.046;2024-02-28T14:06:21;11.30;60.00
30467;DHT22;17258;52.560;13.046;2024-02-28T14:16:21;11.30;59.70
30467;DHT22;17258;52.560;13.046;2024-02-28T14:26:22;11.40;60.20
30467;DHT22;17258;52.560;13.046;2024-02-28T14:36:24;11.40;59.70
30467;DHT22;17258;52.560;13.046;2024-02-28T14:46:25;11.60;59.80
30467;DHT22;17258;52.560;13.046;2024-02-28T14:56:26;11.60;59.50
30467;DHT22;17258;52.560;13.046;2024-02-28T15:06:29;11.60;59.30
30467;DHT22;17258;52.560;13.046;2024-02-28T15:16:32;11.60;59.30
30467;DHT22;17258;52.560;13.046;2024-02-28T15:26:33;11.60;59.30
30467;DHT22;17258;52.560;13.046;2024-02-28T15:36:34;11.60;59.10
30467;DHT22;17258;52.560;13.046;2024-02-28T15:46:34;11.50;59.00
30467;DHT22;17258;52.560;13.046;2024-02-28T15:56:37;11.50;59.00
30467;DHT22;17258;52.560;13.046;2024-02-28T16:06:40;11.40;58.90
30467;DHT22;17258;52.560;13.046;2024-02-28T16:16:40;11.30;58.80
30467;DHT22;17258;52.560;13.046;2024-02-28T16:26:41;11.20;58.90
30467;DHT22;17258;52.560;13.046;2024-02-28T16:36:44;11.20;58.90
30467;DHT22;17258;52.560;13.046;2024-02-28T16:46:45;11.00;58.70
30467;DHT22;17258;52.560;13.046;2024-02-28T16:56:46;10.80;58.70
30467;DHT22;17258;52.560;13.046;2024-02-28T17:06:47;10.60;58.60
30467;DHT22;17258;52.560;13.046;2024-02-28T17:16:50;10.40;58.60
30467;DHT22;17258;52.560;13.046;2024-02-28T17:26:50;10.20;58.50
30467;DHT22;17258;52.560;13.046;2024-02-28T17:36:51;10.00;58.60
30467;DHT22;17258;52.560;13.046;2024-02-28T17:46:52;9.70;58.60
30467;DHT22;17258;52.560;13.046;2024-02-28T17:56:53;9.50;58.60
30467;DHT22;17258;52.560;13.046;2024-02-28T18:06:54;9.30;58.60
30467;DHT22;17258;52.560;13.046;2024-02-28T18:16:54;9.00;58.60
30467;DHT22;17258;52.560;13.046;2024-02-28T18:26:55;8.80;58.60
30467;DHT22;17258;52.560;13.046;2024-02-28T18:36:56;8.60;58.70
30467;DHT22;17258;52.560;13.046;2024-02-28T18:46:57;8.40;58.70
30467;DHT22;17258;52.560;13.046;2024-02-28T18:56:58;8.20;58.70
30467;DHT22;17258;52.560;13.046;2024-02-28T19:06:58;8.10;58.70
30467;DHT22;17258;52.560;13.046;2024-02-28T19:16:59;7.90;58.70
30467;DHT22;17258;52.560;13.046;2024-02-28T19:27:00;7.80;58.90
30467;DHT22;17258;52.560;13.046;2024-02-28T19:37:01;7.60;58.90
30467;DHT22;17258;52.560;13.046;2024-02-28T19:47:01;7.50;58.90
30467;DHT22;17258;52.560;13.046;2024-02-28T19:57:02;7.40;58.90
30467;DHT22;17258;52.560;13.046;2024-02-28T20:07:03;7.20;58.90
30467;DHT22;17258;52.560;13.046;2024-02-28T20:17:07;7.10;58.90
30467;DHT22;17258;52.560;13.046;2024-02-28T20:27:09;7.00;59.00
30467;DHT22;17258;52.560;13.046;2024-02-28T20:37:10;6.80;58.90
30467;DHT22;17258;52.560;13.046;2024-02-28T20:47:10;6.70;59.00
30467;DHT22;17258;52.560;13.046;2024-02-28T20:57:11;6.60;59.00
30467;DHT22;17258;52.560;13.046;2024-02-28T21:07:12;6.50;59.10
30467;DHT22;17258;52.560;13.046;2024-02-28T21:17:14;6.40;59.10
30467;DHT22;17258;52.560;13.046;2024-02-28T21:27:14;6.30;59.20
30467;DHT22;17258;52.560;13.046;2024-02-28T21:37:15;6.20;59.20
30467;DHT22;17258;52.560;13.046;2024-02-28T21:47:16;6.10;59.30
30467;DHT22;17258;52.560;13.046;2024-02-28T21:57:17;6.00;59.40
30467;DHT22;17258;52.560;13.046;2024-02-28T22:07:18;6.00;59.50
30467;DHT22;17258;52.560;13.046;2024-02-28T22:17:19;5.90;59.50
30467;DHT22;17258;52.560;13.046;2024-02-28T22:27:19;5.90;59.50
30467;DHT22;17258;52.560;13.046;2024-02-28T22:37:20;5.90;59.50
30467;DHT22;17258;52.560;13.046;2024-02-28T22:47:21;5.80;59.50
30467;DHT22;17258;52.560;13.046;2024-02-28T22:57:21;5.80;59.50
30467;DHT22;17258;52.560;13.046;2024-02-28T23:07:22;5.70;59.60
30467;DHT22;17258;52.560;13.046;2024-02-28T23:17:23;5.60;59.50
30467;DHT22;17258;52.560;13.046;2024-02-28T23:27:23;5.50;59.50
30467;DHT22;17258;52.560;13.046;2024-02-28T23:37:25;5.40;59.60
30467;DHT22;17258;52.560;13.046;2024-02-28T23:47:26;5.30;59.60
30467;DHT22;17258;52.560;13.046;2024-02-28T23:57:26;5.30;59.70
